Time;durP1;ratioP1;P1;durP2;ratioP2;P2;SDS_P1;SDS_P2;PMS_P1;PMS_P2;Temp;Humidity;BMP_temperature;BMP_pressure;BME280_temperature;BME280_humidity;BME280_pressure;Samples;Min_cycle;Max_cycle;Signal;HPM_P1;HPM_P2
2022/08/26 00:02:14;;;;;;;10.65;4.20;;;;;;;24.08;61.80;99488.31;7735865;32;39348;-72
2022/08/26 00:06:34;;;;;;;11.77;4.35;;;;;;;23.97;62.17;99482.53;7736390;32;40175;-73
2022/08/26 00:10:51;;;;;;;11.60;4.53;;;;;;;24.04;61.91;99484.66;7760036;32;37696;-73
2022/08/26 00:15:09;;;;;;;14.15;4.53;;;;;;;24.14;61.54;99481.25;7762708;32;37629;-72
2022/08/26 00:19:26;;;;;;;13.02;4.55;;;;;;;24.08;61.92;99486.34;7745254;32;39394;-72
2022/08/26 00:23:43;;;;;;;10.85;4.55;;;;;;;23.72;62.70;99479.28;7739332;32;40728;-72
2022/08/26 00:27:59;;;;;;;13.23;4.93;;;;;;;23.71;62.76;99483.22;7739486;32;38536;-73
2022/08/26 00:32:15;;;;;;;9.68;4.55;;;;;;;23.66;63.13;99491.88;7739437;32;37171;-72
2022/08/26 00:36:32;;;;;;;15.20;4.90;;;;;;;23.63;62.96;99483.09;7725309;32;40074;-73
2022/08/26 00:40:51;;;;;;;8.82;4.87;;;;;;;23.71;62.79;99480.44;7739149;32;39940;-73
2022/08/26 00:45:07;;;;;;;15.05;4.60;;;;;;;23.53;63.23;99478.09;7739218;32;37726;-72
2022/08/26 00:49:43;;;;;;;14.68;5.20;;;;;;;23.46;63.54;99482.72;7757521;32;37383;-72
2022/08/26 00:54:04;;;;;;;12.52;4.15;;;;;;;23.70;62.81;99476.03;7766285;32;39254;-73
2022/08/26 00:58:23;;;;;;;10.60;4.32;;;;;;;23.59;63.18;99481.38;7752451;32;39896;-73
2022/08/26 01:02:41;;;;;;;11.00;5.32;;;;;;;23.59;63.23;99479.44;7752209;32;37944;-73
2022/08/26 01:07:03;;;;;;;12.43;4.97;;;;;;;23.48;63.57;99474.81;7752806;32;37950;-73
2022/08/26 01:11:20;;;;;;;10.65;4.78;;;;;;;23.49;63.74;99474.47;7752319;32;38708;-72
2022/08/26 01:15:42;;;;;;;22.37;5.37;;;;;;;23.51;63.76;99469.34;7737983;32;39773;-73
2022/08/26 01:20:44;;;;;;;13.70;5.07;;;;;;;23.50;63.75;99476.06;7725146;32;38480;-72
2022/08/26 01:25:01;;;;;;;11.10;4.97;;;;;;;23.44;63.90;99474.75;7736720;32;36953;-73
2022/08/26 01:29:18;;;;;;;10.50;5.30;;;;;;;23.42;63.72;99475.13;7724468;32;39476;-72
2022/08/26 01:34:12;;;;;;;10.55;5.05;;;;;;;23.66;62.67;99464.03;7724615;32;40832;-72
2022/08/26 01:38:28;;;;;;;10.68;4.87;;;;;;;23.55;63.06;99459.06;7734949;32;37897;-72
2022/08/26 01:42:48;;;;;;;16.27;4.47;;;;;;;23.49;63.08;99466.13;7738751;32;37510;-72
2022/08/26 01:47:05;;;;;;;10.80;4.50;;;;;;;23.46;63.21;99474.38;7725265;32;39496;-72
2022/08/26 01:51:24;;;;;;;12.68;4.47;;;;;;;23.44;62.98;99464.44;7724550;32;40504;-72
2022/08/26 01:55:43;;;;;;;14.60;5.18;;;;;;;23.42;62.97;99460.37;7712160;32;38560;-72
2022/08/26 02:00:01;;;;;;;13.10;4.80;;;;;;;23.34;62.96;99458.66;7724681;32;37043;-72
2022/08/26 02:04:27;;;;;;;10.25;5.00;;;;;;;23.40;62.89;99462.72;7741986;32;40156;-73
2022/08/26 02:08:46;;;;;;;13.35;4.80;;;;;;;23.31;63.27;99473.28;7752627;32;39744;-72
2022/08/26 02:13:07;;;;;;;10.63;4.70;;;;;;;23.36;63.08;99461.88;7751670;32;38029;-73
2022/08/26 02:17:33;;;;;;;10.68;4.35;;;;;;;23.36;62.89;99461.88;7732130;32;38223;-74
2022/08/26 02:21:50;;;;;;;13.77;4.57;;;;;;;23.24;63.28;99465.59;7724850;32;40009;-72
2022/08/26 02:26:11;;;;;;;12.98;4.78;;;;;;;23.20;63.65;99459.16;7738062;32;39737;-74
2022/08/26 02:30:32;;;;;;;12.77;5.03;;;;;;;23.15;63.79;99457.47;7737898;32;38059;-73
2022/08/26 02:34:49;;;;;;;12.95;4.60;;;;;;;23.17;63.67;99462.66;7723871;32;36943;-72
2022/08/26 02:39:06;;;;;;;13.23;4.85;;;;;;;23.09;63.81;99458.13;7737582;32;39098;-73
2022/08/26 02:43:22;;;;;;;15.32;4.80;;;;;;;23.05;64.24;99469.97;7738037;32;40041;-73
2022/08/26 02:47:48;;;;;;;11.50;4.47;;;;;;;23.09;63.85;99461.69;7737725;32;37892;-72
2022/08/26 02:52:05;;;;;;;15.65;4.30;;;;;;;23.00;63.82;99456.31;7737587;32;37208;-73
2022/08/26 02:56:21;;;;;;;10.73;5.10;;;;;;;22.99;63.82;99453.91;7737529;32;39202;-72
2022/08/26 03:00:38;;;;;;;9.82;4.85;;;;;;;23.17;63.05;99455.13;7737379;32;40593;-73
2022/08/26 03:05:10;;;;;;;10.88;4.85;;;;;;;23.06;63.45;99448.53;7725086;32;38670;-73
2022/08/26 03:09:26;;;;;;;14.98;4.37;;;;;;;23.24;62.60;99441.38;7737765;32;37952;-73
2022/08/26 03:13:43;;;;;;;11.88;4.85;;;;;;;23.06;63.19;99445.75;7737771;32;39348;-72
2022/08/26 03:17:59;;;;;;;10.55;4.85;;;;;;;23.02;63.51;99436.50;7737135;32;39973;-72
2022/08/26 03:22:15;;;;;;;14.15;4.40;;;;;;;22.95;64.17;99447.47;7736936;32;37944;-72
2022/08/26 03:26:31;;;;;;;13.18;4.35;;;;;;;23.03;63.78;99438.91;7736946;32;37100;-72
2022/08/26 03:30:48;;;;;;;16.37;4.70;;;;;;;23.13;63.07;99429.22;7736648;32;39316;-72
2022/08/26 03:35:04;;;;;;;15.60;5.03;;;;;;;23.40;62.06;99423.78;7736528;32;39928;-72
2022/08/26 03:39:21;;;;;;;12.63;4.03;;;;;;;23.24;62.43;99421.91;7736574;32;38050;-73
2022/08/26 03:43:37;;;;;;;13.43;4.80;;;;;;;23.15;62.70;99421.31;7756376;32;37167;-72
2022/08/26 03:47:55;;;;;;;11.85;4.40;;;;;;;22.98;63.46;99432.84;7763385;32;40112;-73
2022/08/26 03:52:13;;;;;;;12.93;4.50;;;;;;;23.07;63.12;99422.34;7764594;32;40005;-73
2022/08/26 03:56:32;;;;;;;15.07;4.57;;;;;;;22.97;63.44;99428.44;7766764;32;37950;-73
2022/08/26 04:00:50;;;;;;;14.68;4.30;;;;;;;22.91;63.68;99425.16;7766866;32;37930;-73
2022/08/26 04:05:12;;;;;;;17.75;4.87;;;;;;;22.95;63.26;99425.22;7766838;32;39321;-72
2022/08/26 04:09:28;;;;;;;9.98;4.60;;;;;;;23.21;62.23;99417.06;7753110;32;39464;-72
2022/08/26 04:13:44;;;;;;;16.75;4.65;;;;;;;22.99;62.80;99426.94;7765962;32;38953;-72
2022/08/26 04:18:02;;;;;;;18.40;5.00;;;;;;;22.91;63.19;99430.72;7766523;32;38025;-71
2022/08/26 04:22:18;;;;;;;12.00;4.68;;;;;;;23.06;62.55;99426.31;7766493;32;39436;-73
2022/08/26 04:26:40;;;;;;;17.05;4.65;;;;;;;23.07;62.69;99433.47;7766481;32;39996;-72
2022/08/26 04:30:57;;;;;;;13.30;4.25;;;;;;;23.22;62.40;99429.81;7765992;32;38494;-72
2022/08/26 04:35:13;;;;;;;12.85;4.32;;;;;;;23.44;61.88;99416.34;7766291;32;37140;-72
2022/08/26 04:39:30;;;;;;;13.27;4.15;;;;;;;23.42;62.00;99411.16;7753982;32;39036;-72
2022/08/26 04:43:47;;;;;;;16.98;4.87;;;;;;;23.38;62.04;99415.03;7762513;32;39879;-72
2022/08/26 04:48:03;;;;;;;14.05;4.65;;;;;;;23.50;61.47;99414.84;7752312;32;37905;-83
2022/08/26 04:52:19;;;;;;;14.75;4.95;;;;;;;23.45;61.68;99423.50;7766136;32;37070;-78
2022/08/26 04:56:40;;;;;;;13.82;4.57;;;;;;;23.60;61.55;99422.59;7766284;32;39499;-78
2022/08/26 05:00:57;;;;;;;32.45;5.43;;;;;;;23.77;61.09;99418.53;7766066;32;40816;-79
2022/08/26 05:05:13;;;;;;;25.42;5.00;;;;;;;23.84;60.92;99425.47;7765402;32;38646;-77
2022/08/26 05:09:33;;;;;;;16.77;5.20;;;;;;;24.05;60.29;99425.81;7765669;32;38097;-78
2022/08/26 05:13:49;;;;;;;17.30;4.93;;;;;;;24.16;59.71;99421.25;7741712;32;40207;-79
2022/08/26 05:18:06;;;;;;;17.92;5.87;;;;;;;24.58;58.29;99418.69;7738891;32;39485;-80
2022/08/26 05:22:22;;;;;;;14.10;4.57;;;;;;;24.66;58.13;99426.78;7738541;32;38112;-76
2022/08/26 05:26:40;;;;;;;10.70;4.97;;;;;;;24.26;60.21;99425.34;7739467;32;37911;-77
2022/08/26 05:30:56;;;;;;;18.87;5.43;;;;;;;24.45;59.84;99427.25;7738471;32;39390;-77
2022/08/26 05:35:12;;;;;;;18.40;4.68;;;;;;;24.57;59.78;99434.63;7736767;32;39940;-78
2022/08/26 05:39:32;;;;;;;26.30;5.25;;;;;;;24.48;60.34;99428.50;7739303;32;38635;-77
2022/08/26 05:43:49;;;;;;;17.42;4.78;;;;;;;24.60;60.08;99445.03;7738639;32;37463;-77
2022/08/26 05:48:07;;;;;;;14.77;4.60;;;;;;;24.65;60.10;99432.78;7738313;32;39064;-77
2022/08/26 05:52:23;;;;;;;13.88;4.47;;;;;;;24.64;59.71;99429.16;7746849;32;41598;-78
2022/08/26 05:56:41;;;;;;;14.60;4.55;;;;;;;24.59;59.71;99437.03;7738316;32;37844;-76
2022/08/26 06:01:09;;;;;;;14.50;4.90;;;;;;;24.38;59.79;99441.88;7750561;32;37912;-78
2022/08/26 06:05:26;;;;;;;14.45;4.87;;;;;;;24.72;59.05;99438.44;7765392;32;40205;-76
2022/08/26 06:09:43;;;;;;;12.63;5.05;;;;;;;24.72;59.19;99433.66;7756307;32;41261;-77
2022/08/26 06:14:05;;;;;;;13.48;5.30;;;;;;;24.59;59.44;99432.25;7738141;32;37893;-76
2022/08/26 06:18:26;;;;;;;13.10;4.80;;;;;;;24.93;59.32;99446.28;7741383;32;37270;-78
2022/08/26 06:27:19;;;;;;;21.10;5.30;;;;;;;24.79;60.86;99434.97;7737818;32;41302;-77
2022/08/26 06:31:35;;;;;;;13.68;5.05;;;;;;;24.89;60.53;99428.72;7737765;32;38041;-78
2022/08/26 06:35:54;;;;;;;16.77;5.10;;;;;;;25.26;60.20;99433.59;7763545;32;38110;-76
2022/08/26 06:40:13;;;;;;;16.23;4.70;;;;;;;24.97;60.85;99440.78;7738062;32;39052;-76
2022/08/26 06:44:30;;;;;;;20.02;5.43;;;;;;;25.37;59.22;99440.12;7737761;32;40974;-77
2022/08/26 06:48:47;;;;;;;14.65;4.93;;;;;;;25.66;58.12;99440.44;7737955;32;38781;-76
2022/08/26 06:53:03;;;;;;;18.42;4.82;;;;;;;25.91;56.84;99432.31;7741050;32;37083;-77
2022/08/26 06:57:19;;;;;;;17.77;4.65;;;;;;;25.96;56.50;99436.78;7738422;32;39399;-77
2022/08/26 07:01:44;;;;;;;11.73;4.50;;;;;;;25.79;57.47;99441.78;7747925;32;40753;-79
2022/08/26 07:06:02;;;;;;;17.70;4.30;;;;;;;25.61;56.94;99446.34;7764419;32;37894;-77
2022/08/26 07:10:18;;;;;;;18.02;4.60;;;;;;;25.81;55.96;99442.19;7762653;32;37238;-77
2022/08/26 07:14:35;;;;;;;11.73;4.40;;;;;;;25.97;55.17;99443.97;7737210;32;39419;-72
2022/08/26 07:18:52;;;;;;;15.02;4.65;;;;;;;26.39;53.80;99439.94;7737284;32;39975;-75
2022/08/26 07:23:09;;;;;;;16.67;4.75;;;;;;;26.66;53.36;99437.75;7737061;32;38037;-76
2022/08/26 07:27:26;;;;;;;13.23;4.62;;;;;;;26.60;52.76;99442.09;7736452;32;36406;-75
2022/08/26 07:31:44;;;;;;;13.60;4.28;;;;;;;27.00;52.96;99439.56;7736709;32;40552;-77
2022/08/26 07:36:01;;;;;;;14.45;4.40;;;;;;;27.23;53.08;99439.25;7736192;32;40074;-77
2022/08/26 07:40:19;;;;;;;13.95;4.00;;;;;;;27.50;52.20;99428.59;7737342;32;37744;-77
2022/08/26 07:44:36;;;;;;;12.32;4.28;;;;;;;27.87;51.19;99428.28;7744997;32;36861;-78
2022/08/26 07:48:52;;;;;;;14.63;3.65;;;;;;;27.83;50.13;99429.47;7752828;32;39278;-77
2022/08/26 07:53:09;;;;;;;13.05;4.37;;;;;;;28.41;47.24;99419.91;7762897;32;40674;-77
2022/08/26 07:57:27;;;;;;;12.77;3.80;;;;;;;28.48;48.56;99422.69;7721700;32;37865;-73
2022/08/26 08:01:44;;;;;;;13.30;3.50;;;;;;;28.50;45.69;99422.28;7752329;32;38172;-73
2022/08/26 08:06:00;;;;;;;19.70;4.05;;;;;;;28.98;45.37;99415.41;7733219;32;39454;-73
2022/08/26 08:10:21;;;;;;;13.93;4.00;;;;;;;29.55;44.98;99414.37;7734099;32;39995;-72
2022/08/26 08:14:41;;;;;;;16.73;4.28;;;;;;;29.54;45.96;99419.16;7735710;32;38731;-73
2022/08/26 08:18:58;;;;;;;11.35;3.50;;;;;;;29.88;40.83;99407.34;7735882;32;36936;-71
2022/08/26 08:23:15;;;;;;;16.20;3.90;;;;;;;30.01;39.53;99406.84;7731289;32;39456;-70
2022/08/26 08:27:36;;;;;;;13.18;3.90;;;;;;;30.52;38.22;99399.59;7729238;32;39699;-70
2022/08/26 08:31:52;;;;;;;17.73;3.78;;;;;;;30.85;37.25;99400.03;7728952;32;38084;-71
2022/08/26 08:36:14;;;;;;;15.02;3.67;;;;;;;31.12;35.89;99399.37;7729459;32;37581;-71
2022/08/26 08:40:38;;;;;;;;;;;;;;;31.27;35.86;99398.75;7737684;32;39155;-71
2022/08/26 08:45:01;;;;;;;14.70;3.60;;;;;;;31.59;35.35;99393.91;7739510;32;40009;-72
2022/08/26 08:49:18;;;;;;;10.27;2.95;;;;;;;31.57;37.43;99387.91;7738362;32;38693;-72
2022/08/26 08:53:41;;;;;;;18.52;3.90;;;;;;;31.77;35.16;99397.28;7725258;32;37654;-72
2022/08/26 08:58:12;;;;;;;13.27;3.42;;;;;;;32.02;33.15;99381.97;7739064;32;39473;-72
2022/08/26 09:02:35;;;;;;;10.82;3.55;;;;;;;32.08;33.39;99387.94;7725718;32;40808;-71
2022/08/26 09:06:54;;;;;;;18.87;3.92;;;;;;;32.16;32.58;99395.06;7739082;32;37941;-72
2022/08/26 09:11:10;;;;;;;16.65;3.83;;;;;;;32.68;31.36;99382.47;7739530;32;37530;-71
2022/08/26 09:15:58;;;;;;;13.52;3.42;;;;;;;32.81;32.15;99382.63;7738940;32;39318;-72
2022/08/26 09:20:40;;;;;;;13.18;3.80;;;;;;;32.93;31.82;99391.22;7732718;32;39845;-73
2022/08/26 09:25:01;;;;;;;11.63;3.47;;;;;;;32.85;32.36;99369.22;7727260;32;37993;-71
2022/08/26 09:29:25;;;;;;;18.23;3.78;;;;;;;33.15;32.28;99362.59;7742088;32;37323;-72
2022/08/26 09:33:42;;;;;;;14.93;4.00;;;;;;;33.15;30.98;99359.75;7765426;32;38344;-72
2022/08/26 09:37:58;;;;;;;17.55;3.97;;;;;;;33.42;32.21;99358.75;7765500;32;40138;-72
2022/08/26 09:42:22;;;;;;;8.20;3.25;;;;;;;33.58;31.18;99355.97;7756101;32;37835;-72
2022/08/26 09:47:03;;;;;;;15.20;3.28;;;;;;;33.76;30.52;99349.91;7753618;32;37905;-72
2022/08/26 09:51:30;;;;;;;11.55;3.42;;;;;;;33.89;29.60;99354.84;7735822;32;39304;-72
2022/08/26 09:55:50;;;;;;;21.05;4.22;;;;;;;34.22;31.01;99352.78;7742901;32;39886;-72
2022/08/26 10:00:28;;;;;;;19.23;3.72;;;;;;;34.41;31.60;99354.72;7765994;32;37956;-72
2022/08/26 10:04:54;;;;;;;13.70;3.62;;;;;;;34.86;30.45;99350.25;7767734;32;38068;-72
2022/08/26 10:09:16;;;;;;;16.87;4.25;;;;;;;34.79;28.78;99351.25;7751894;32;40516;-72
2022/08/26 10:13:36;;;;;;;17.50;4.07;;;;;;;34.66;29.51;99339.06;7754808;32;39772;-72
2022/08/26 10:18:16;;;;;;;10.55;3.65;;;;;;;34.32;29.16;99340.41;7792341;32;38718;-72
2022/08/26 10:22:37;;;;;;;15.88;3.95;;;;;;;34.48;29.32;99341.59;7792372;32;37938;-72
2022/08/26 10:27:04;;;;;;;17.02;3.53;;;;;;;34.30;29.30;99342.88;7792237;32;39346;-72
2022/08/26 10:32:19;;;;;;;16.33;3.85;;;;;;;34.63;29.49;99328.63;7778915;32;40732;-72
2022/08/26 10:36:50;;;;;;;13.40;3.58;;;;;;;34.76;28.97;99328.72;7623790;32;38767;-72
2022/08/26 10:41:31;;;;;;;15.80;3.53;;;;;;;34.93;30.84;99321.75;7701022;32;37386;-72
2022/08/26 10:45:50;;;;;;;14.55;4.22;;;;;;;34.77;28.33;99319.78;7712159;32;39040;-72
2022/08/26 10:50:07;;;;;;;19.42;4.32;;;;;;;35.29;28.32;99315.00;7711615;32;39962;-72
2022/08/26 10:54:29;;;;;;;17.62;4.03;;;;;;;35.59;27.44;99312.06;7725397;32;37699;-73
2022/08/26 10:59:07;;;;;;;17.67;3.15;;;;;;;35.72;27.64;99312.84;7709706;32;37036;-72
2022/08/26 11:03:44;;;;;;;20.53;3.60;;;;;;;35.77;27.53;99309.41;7709879;32;39912;-72
2022/08/26 11:08:29;;;;;;;17.20;3.75;;;;;;;35.31;27.78;99306.06;7729473;32;40075;-72
2022/08/26 11:12:47;;;;;;;18.27;3.62;;;;;;;35.99;27.23;99294.53;7709076;32;37727;-72
2022/08/26 11:17:07;;;;;;;18.37;3.45;;;;;;;36.63;26.60;99283.69;7737336;32;37109;-73
2022/08/26 11:21:59;;;;;;;10.68;3.33;;;;;;;36.88;25.72;99279.16;7726984;32;38246;-72
2022/08/26 11:26:17;;;;;;;18.65;4.45;;;;;;;37.73;24.03;99271.28;7706027;32;39794;-72
2022/08/26 11:30:53;;;;;;;13.93;3.30;;;;;;;37.10;23.79;99270.59;7730518;32;38056;-72
2022/08/26 11:35:19;;;;;;;13.23;3.20;;;;;;;36.66;23.19;99273.47;7733462;32;37219;-72
2022/08/26 11:39:47;;;;;;;8.68;3.08;;;;;;;37.24;22.10;99269.25;7736208;32;40064;-74
2022/08/26 11:44:10;;;;;;;11.38;2.72;;;;;;;37.48;22.81;99266.63;7721486;32;39980;-73
2022/08/26 11:48:29;;;;;;;17.05;4.05;;;;;;;37.46;22.62;99254.16;7733255;32;38445;-73
2022/08/26 11:53:17;;;;;;;12.93;3.08;;;;;;;37.87;20.99;99247.13;7733513;32;36947;-73
2022/08/26 11:57:44;;;;;;;11.38;2.90;;;;;;;38.09;21.25;99238.44;7733792;32;39874;-73
2022/08/26 12:02:00;;;;;;;11.55;3.25;;;;;;;38.77;21.32;99243.12;7723453;32;40446;-73
2022/08/26 12:06:30;;;;;;;13.27;3.37;;;;;;;39.16;21.21;99229.06;7735890;32;37889;-74
2022/08/26 12:10:47;;;;;;;8.02;2.70;;;;;;;39.55;20.35;99226.34;7723062;32;37437;-75
2022/08/26 12:15:10;;;;;;;16.73;3.50;;;;;;;39.82;20.25;99221.69;7738760;32;40333;-75
2022/08/26 12:19:30;;;;;;;13.52;3.03;;;;;;;40.06;19.76;99223.75;7739556;32;39859;-74
2022/08/26 12:23:50;;;;;;;17.83;3.30;;;;;;;40.05;18.55;99210.75;7739223;32;38769;-75
2022/08/26 12:28:07;;;;;;;9.02;2.85;;;;;;;40.26;18.48;99206.75;7725747;32;37275;-74
2022/08/26 12:32:24;;;;;;;13.77;2.97;;;;;;;40.47;18.31;99212.59;7739288;32;40091;-74
2022/08/26 12:36:51;;;;;;;16.92;3.35;;;;;;;40.31;16.51;99208.94;7747843;32;40816;-74
2022/08/26 12:41:07;;;;;;;13.43;3.08;;;;;;;39.36;17.51;99213.44;7766210;32;37865;-74
2022/08/26 12:45:36;;;;;;;14.45;3.28;;;;;;;39.92;18.15;99203.22;7766165;32;37856;-74
2022/08/26 12:50:04;;;;;;;15.88;3.00;;;;;;;40.00;19.50;99200.84;7766159;32;40173;-74
2022/08/26 12:54:57;;;;;;;13.15;2.72;;;;;;;39.90;19.92;99200.09;7765963;32;40033;-75
2022/08/26 12:59:21;;;;;;;12.77;3.00;;;;;;;40.25;18.59;99188.03;7765828;32;38596;-74
2022/08/26 13:03:42;;;;;;;17.42;4.15;;;;;;;40.04;18.23;99189.22;7766227;32;37107;-75
2022/08/26 13:08:08;;;;;;;11.43;3.00;;;;;;;39.34;18.34;99185.41;7765895;32;40333;-74
2022/08/26 13:12:33;;;;;;;14.82;3.10;;;;;;;38.82;18.83;99174.09;7765718;32;39752;-74
2022/08/26 13:16:49;;;;;;;10.98;2.80;;;;;;;39.21;20.37;99168.56;7765842;32;38300;-74
2022/08/26 13:21:20;;;;;;;8.00;2.83;;;;;;;39.66;18.92;99165.13;7764554;32;36850;-74
2022/08/26 13:25:36;;;;;;;12.37;3.00;;;;;;;39.61;17.71;99155.94;7764047;32;39310;-74
2022/08/26 13:29:53;;;;;;;10.93;2.62;;;;;;;40.06;17.36;99155.28;7765476;32;40783;-74
2022/08/26 13:34:13;;;;;;;15.77;3.45;;;;;;;40.15;18.33;99152.31;7765415;32;37941;-74
2022/08/26 13:38:29;;;;;;;15.32;3.58;;;;;;;40.08;17.19;99141.28;7765152;32;36043;-74
2022/08/26 13:42:48;;;;;;;15.38;3.25;;;;;;;40.01;16.89;99147.37;7765593;32;40060;-74
2022/08/26 13:47:05;;;;;;;16.95;3.28;;;;;;;39.40;17.98;99152.12;7765356;32;40840;-74
2022/08/26 13:51:22;;;;;;;13.68;3.28;;;;;;;39.00;19.01;99159.00;7765225;32;37906;-74
2022/08/26 13:55:38;;;;;;;16.37;4.07;;;;;;;39.30;17.92;99155.53;7765156;32;37399;-74
2022/08/26 13:59:55;;;;;;;17.83;3.80;;;;;;;39.21;18.31;99148.59;7765188;32;40034;-74
2022/08/26 14:04:11;;;;;;;17.37;3.25;;;;;;;39.47;19.19;99153.03;7765202;32;39935;-75
2022/08/26 14:08:28;;;;;;;12.88;2.58;;;;;;;39.43;18.23;99150.38;7764986;32;37904;-73
2022/08/26 14:12:44;;;;;;;18.83;3.45;;;;;;;40.34;18.35;99153.72;7764893;32;37911;-75
2022/08/26 14:17:00;;;;;;;15.32;3.40;;;;;;;40.23;17.33;99147.00;7765051;32;39323;-74
2022/08/26 14:21:17;;;;;;;15.77;3.42;;;;;;;40.65;17.92;99152.41;7764944;32;40748;-74
2022/08/26 14:25:33;;;;;;;11.48;3.30;;;;;;;40.92;17.31;99145.56;7764910;32;37643;-74
2022/08/26 14:29:49;;;;;;;12.93;2.83;;;;;;;41.19;17.98;99145.66;7765023;32;37153;-74
2022/08/26 14:34:06;;;;;;;19.95;3.95;;;;;;;41.17;16.89;99145.38;7764781;32;39419;-75
2022/08/26 14:38:22;;;;;;;13.02;2.92;;;;;;;41.32;17.67;99146.13;7763348;32;39842;-74
2022/08/26 14:42:40;;;;;;;16.60;2.85;;;;;;;41.16;18.17;99147.47;7764612;32;38601;-75
2022/08/26 14:46:58;;;;;;;11.85;2.80;;;;;;;40.55;18.40;99148.06;7764574;32;37191;-74
2022/08/26 14:51:14;;;;;;;18.60;4.00;;;;;;;40.15;20.44;99153.13;7764165;32;40146;-75
2022/08/26 14:55:32;;;;;;;12.40;3.22;;;;;;;40.06;20.52;99150.34;7763342;32;39952;-75
2022/08/26 14:59:49;;;;;;;11.25;3.20;;;;;;;39.68;17.79;99145.44;7755593;32;38012;-75
2022/08/26 15:04:05;;;;;;;11.65;2.60;;;;;;;39.71;20.90;99153.03;7763227;32;37746;-75
2022/08/26 15:08:21;;;;;;;17.15;3.37;;;;;;;39.82;21.85;99141.81;7763290;32;39253;-74
2022/08/26 15:12:39;;;;;;;14.00;2.95;;;;;;;39.48;19.77;99140.34;7763407;32;39903;-74
2022/08/26 15:16:56;;;;;;;16.25;3.20;;;;;;;39.50;23.02;99144.31;7760672;32;37796;-75
2022/08/26 15:21:13;;;;;;;16.52;3.05;;;;;;;39.28;20.61;99130.34;7763020;32;38138;-74
2022/08/26 15:25:31;;;;;;;13.32;2.95;;;;;;;39.05;19.85;99140.47;7762983;32;39325;-75
2022/08/26 15:29:47;;;;;;;13.98;2.87;;;;;;;38.54;21.83;99135.62;7762710;32;39930;-74
2022/08/26 15:34:09;;;;;;;11.73;2.90;;;;;;;38.06;22.74;99134.13;7738357;32;38561;-74
2022/08/26 15:38:32;;;;;;;12.52;3.35;;;;;;;38.03;23.37;99135.06;7752685;32;37179;-74
2022/08/26 15:42:48;;;;;;;12.48;3.28;;;;;;;37.85;22.91;99127.34;7762099;32;38938;-74
2022/08/26 15:47:16;;;;;;;15.35;2.83;;;;;;;37.55;24.09;99132.72;7763230;32;40749;-73
2022/08/26 15:51:35;;;;;;;13.85;3.42;;;;;;;37.29;23.79;99135.06;7764983;32;38621;-73
2022/08/26 15:56:01;;;;;;;18.10;3.45;;;;;;;37.13;24.26;99127.56;7766082;32;37134;-74
2022/08/26 16:00:18;;;;;;;16.00;3.55;;;;;;;37.03;24.24;99118.25;7765013;32;40198;-74
2022/08/26 16:04:34;;;;;;;17.40;3.65;;;;;;;36.74;25.38;99117.84;7766056;32;40842;-74
2022/08/26 16:08:50;;;;;;;12.60;3.58;;;;;;;36.37;25.45;99118.47;7765702;32;37853;-74
2022/08/26 16:13:06;;;;;;;16.33;3.75;;;;;;;36.35;26.02;99120.19;7766528;32;37807;-74
2022/08/26 16:17:27;;;;;;;18.62;3.58;;;;;;;36.45;26.22;99118.97;7766151;32;40084;-74
2022/08/26 16:21:45;;;;;;;15.55;3.78;;;;;;;36.27;26.62;99114.81;7765955;32;40761;-73
2022/08/26 16:26:11;;;;;;;13.93;3.40;;;;;;;36.08;26.16;99108.19;7766471;32;38731;-74
2022/08/26 16:30:28;;;;;;;15.60;3.65;;;;;;;35.94;26.81;99105.09;7765628;32;37008;-74
2022/08/26 16:34:45;;;;;;;20.35;3.78;;;;;;;35.70;27.34;99114.03;7766164;32;39553;-74
2022/08/26 16:39:11;;;;;;;15.43;3.55;;;;;;;35.60;27.40;99107.53;7765354;32;40601;-74
2022/08/26 16:43:27;;;;;;;22.35;3.50;;;;;;;35.34;27.97;99118.13;7765973;32;38448;-74
2022/08/26 16:47:44;;;;;;;16.27;3.22;;;;;;;35.26;28.05;99117.59;7766043;32;38180;-75
2022/08/26 16:52:00;;;;;;;20.50;3.83;;;;;;;35.04;27.79;99117.50;7765548;32;39990;-74
2022/08/26 16:56:18;;;;;;;13.77;3.05;;;;;;;34.69;28.25;99128.72;7765955;32;40809;-74
2022/08/26 17:00:34;;;;;;;14.65;3.28;;;;;;;34.63;28.92;99133.38;7764398;32;36970;-73
2022/08/26 17:04:51;;;;;;;13.10;3.40;;;;;;;34.43;31.07;99130.75;7765874;32;37316;-76
2022/08/26 17:09:07;;;;;;;11.93;3.35;;;;;;;33.97;32.04;99128.03;7750815;32;39097;-74
2022/08/26 17:13:24;;;;;;;15.90;3.62;;;;;;;33.81;32.27;99131.72;7737635;32;40849;-72
2022/08/26 17:17:53;;;;;;;16.83;4.40;;;;;;;33.45;32.89;99132.66;7738392;32;37994;-73
2022/08/26 17:22:10;;;;;;;12.27;4.00;;;;;;;33.24;34.12;99131.19;7748127;32;37105;-73
2022/08/26 17:26:27;;;;;;;25.52;4.28;;;;;;;32.78;34.86;99130.28;7753233;32;39730;-73
2022/08/26 17:30:44;;;;;;;20.58;4.57;;;;;;;32.74;34.54;99129.59;7737774;32;39866;-73
2022/08/26 17:35:00;;;;;;;21.95;4.90;;;;;;;32.31;36.17;99124.91;7741324;32;38720;-75
2022/08/26 17:39:17;;;;;;;22.37;4.03;;;;;;;32.00;36.39;99128.72;7752739;32;37227;-72
2022/08/26 17:43:33;;;;;;;13.75;3.58;;;;;;;31.83;36.99;99125.03;7748635;32;39380;-73
2022/08/26 17:47:49;;;;;;;29.42;11.85;;;;;;;31.40;37.65;99116.56;7738460;32;40761;-71
2022/08/26 17:52:05;;;;;;;33.53;11.73;;;;;;;31.02;38.58;99128.88;7738345;32;37879;-73
2022/08/26 17:56:28;;;;;;;26.87;10.65;;;;;;;30.96;38.10;99121.34;7758263;32;37345;-73
2022/08/26 18:00:49;;;;;;;29.45;15.75;;;;;;;30.70;38.25;99130.16;7762435;32;40071;-72
2022/08/26 18:05:07;;;;;;;21.52;8.55;;;;;;;30.21;38.91;99138.03;7765022;32;39887;-71
2022/08/26 18:09:23;;;;;;;18.83;4.72;;;;;;;30.29;38.36;99136.72;7756206;32;288460;-72
2022/08/26 18:13:40;;;;;;;20.83;4.18;;;;;;;30.07;39.03;99129.81;7740006;32;38128;-73
2022/08/26 18:18:02;;;;;;;12.48;4.22;;;;;;;29.94;39.11;99141.59;7738205;32;39403;-77
2022/08/26 18:22:18;;;;;;;15.25;4.50;;;;;;;29.94;39.47;99135.16;7737938;32;40017;-77
2022/08/26 18:26:36;;;;;;;17.65;4.10;;;;;;;29.61;40.82;99139.53;7738073;32;38014;-72
2022/08/26 18:30:52;;;;;;;15.20;3.90;;;;;;;29.51;41.39;99149.63;7738041;32;36832;-73
2022/08/26 18:35:12;;;;;;;15.43;4.18;;;;;;;29.38;41.45;99140.94;7738448;32;40048;-72
2022/08/26 18:39:28;;;;;;;14.20;4.07;;;;;;;29.22;41.86;99135.88;7759623;32;39969;-73
2022/08/26 18:43:44;;;;;;;20.05;4.32;;;;;;;29.06;42.18;99150.41;7747448;32;37486;-72
2022/08/26 18:48:01;;;;;;;18.23;5.30;;;;;;;28.90;41.92;99153.72;7760662;32;37867;-72
2022/08/26 18:52:22;;;;;;;15.73;4.40;;;;;;;28.86;41.96;99157.78;7763612;32;39478;-72
2022/08/26 18:56:41;;;;;;;13.38;4.90;;;;;;;28.55;43.56;99161.16;7763384;32;40864;-71
2022/08/26 19:00:57;;;;;;;19.42;4.57;;;;;;;28.31;44.21;99162.87;7763438;32;38688;-72
2022/08/26 19:05:13;;;;;;;18.42;4.37;;;;;;;28.27;44.19;99157.28;7761670;32;37069;-72
2022/08/26 19:09:30;;;;;;;16.52;4.60;;;;;;;28.07;44.63;99170.97;7763336;32;39140;-72
2022/08/26 19:13:47;;;;;;;23.55;4.78;;;;;;;28.12;44.86;99174.56;7760824;32;40183;-72
2022/08/26 19:18:06;;;;;;;15.93;3.83;;;;;;;27.79;46.13;99174.62;7762802;32;38540;-74
2022/08/26 19:22:24;;;;;;;16.17;4.25;;;;;;;27.79;44.90;99176.63;7762224;32;37167;-72
2022/08/26 19:26:44;;;;;;;21.85;4.00;;;;;;;27.83;44.47;99185.81;7760784;32;39068;-73
2022/08/26 19:31:00;;;;;;;15.63;4.28;;;;;;;27.66;45.69;99187.44;7761210;32;39279;-73
2022/08/26 19:35:16;;;;;;;16.60;4.60;;;;;;;27.66;45.51;99188.22;7762520;32;38003;-71
2022/08/26 19:39:35;;;;;;;16.02;4.25;;;;;;;27.41;46.08;99201.47;7762596;32;37364;-73
2022/08/26 19:43:51;;;;;;;20.35;4.78;;;;;;;27.45;46.06;99191.84;7762109;32;38643;-73
2022/08/26 19:48:13;;;;;;;11.32;4.03;;;;;;;27.03;47.83;99201.00;7761755;32;41321;-72
2022/08/26 19:52:29;;;;;;;13.02;4.45;;;;;;;27.03;47.87;99198.22;7762268;32;37733;-72
2022/08/26 19:56:45;;;;;;;16.52;4.00;;;;;;;27.19;46.76;99203.44;7763263;32;37030;-71
2022/08/26 20:01:05;;;;;;;15.73;3.67;;;;;;;26.98;46.93;99200.22;7762429;32;39405;-71
2022/08/26 20:05:23;;;;;;;13.35;3.90;;;;;;;27.00;46.48;99205.41;7758299;32;40773;-73
2022/08/26 20:09:39;;;;;;;14.07;4.37;;;;;;;26.95;46.31;99201.00;7754209;32;37908;-72
2022/08/26 20:13:55;;;;;;;18.73;4.30;;;;;;;26.64;47.48;99205.31;7761110;32;37161;-73
2022/08/26 20:22:46;;;;;;;17.30;4.10;;;;;;;26.51;48.21;99207.66;7759576;32;39880;-72